createdAt,value
2024-05-09T00:00:46.823Z,14.70
2024-05-09T00:03:14.745Z,14.70
2024-05-09T00:05:44.327Z,14.70
2024-05-09T00:08:15.013Z,14.70
2024-05-09T00:10:42.604Z,14.70
2024-05-09T00:13:13.300Z,14.60
2024-05-09T00:15:40.890Z,14.60
2024-05-09T00:18:09.187Z,14.60
2024-05-09T00:20:40.068Z,14.60
2024-05-09T00:23:15.998Z,14.60
2024-05-09T00:25:44.588Z,14.60
2024-05-09T00:28:15.188Z,14.60
2024-05-09T00:30:42.797Z,14.60
2024-05-09T00:33:11.489Z,14.60
2024-05-09T00:35:41.727Z,14.60
2024-05-09T00:38:10.420Z,14.60
2024-05-09T00:40:41.992Z,14.60
2024-05-09T00:43:16.500Z,14.50
2024-05-09T00:45:45.627Z,14.50
2024-05-09T00:48:17.569Z,14.50
2024-05-09T00:50:50.438Z,14.50
2024-05-09T00:53:19.621Z,14.50
2024-05-09T00:55:49.845Z,14.50
2024-05-09T00:58:24.837Z,14.40
2024-05-09T01:00:53.043Z,14.40
2024-05-09T01:03:23.376Z,14.40
2024-05-09T01:05:53.722Z,14.40
2024-05-09T01:08:21.692Z,14.40
2024-05-09T01:10:49.547Z,14.30
2024-05-09T01:13:17.529Z,14.30
2024-05-09T01:15:45.260Z,14.30
2024-05-09T01:18:14.014Z,14.30
2024-05-09T01:20:47.873Z,14.20
2024-05-09T01:23:17.786Z,14.20
2024-05-09T01:25:46.746Z,14.20
2024-05-09T01:28:17.098Z,14.20
2024-05-09T01:30:47.197Z,14.10
2024-05-09T01:33:15.040Z,14.10
2024-05-09T01:35:43.291Z,14.10
2024-05-09T01:38:13.762Z,14.10
2024-05-09T01:40:41.829Z,14.10
2024-05-09T01:43:12.257Z,14.00
2024-05-09T01:45:41.375Z,14.00
2024-05-09T01:48:12.502Z,14.00
2024-05-09T01:50:43.444Z,14.00
2024-05-09T01:53:15.442Z,13.90
2024-05-09T01:55:44.039Z,14.00
2024-05-09T01:58:12.266Z,13.90
2024-05-09T02:00:42.536Z,13.90
2024-05-09T02:03:16.248Z,13.90
2024-05-09T02:05:51.817Z,13.90
2024-05-09T02:08:24.908Z,13.80
2024-05-09T02:10:52.652Z,13.80
2024-05-09T02:13:20.202Z,13.80
2024-05-09T02:15:52.015Z,13.70
2024-05-09T02:18:22.831Z,13.70
2024-05-09T02:20:52.878Z,13.70
2024-05-09T02:23:20.515Z,13.70
2024-05-09T02:25:48.140Z,13.60
2024-05-09T02:28:15.667Z,13.60
2024-05-09T02:30:45.676Z,13.50
2024-05-09T02:33:14.435Z,13.50
2024-05-09T02:35:44.141Z,13.50
2024-05-09T02:38:12.655Z,13.50
2024-05-09T02:40:43.040Z,13.40
2024-05-09T02:43:15.012Z,13.40
2024-05-09T02:45:42.864Z,13.40
2024-05-09T02:48:14.041Z,13.30
2024-05-09T02:50:44.022Z,13.30
2024-05-09T02:53:14.871Z,13.30
2024-05-09T02:55:43.614Z,13.30
2024-05-09T02:58:13.898Z,13.30
2024-05-09T03:00:42.899Z,13.30
2024-05-09T03:03:14.185Z,13.30
2024-05-09T03:05:44.976Z,13.30
2024-05-09T03:08:13.218Z,13.20
2024-05-09T03:10:40.947Z,13.20
2024-05-09T03:13:15.056Z,13.20
2024-05-09T03:15:45.015Z,13.20
2024-05-09T03:18:15.439Z,13.20
2024-05-09T03:20:45.840Z,13.10
2024-05-09T03:23:18.146Z,13.10
2024-05-09T03:25:45.879Z,13.10
2024-05-09T03:28:18.292Z,13.10
2024-05-09T03:30:53.377Z,13.00
2024-05-09T03:33:21.442Z,13.00
2024-05-09T03:35:51.874Z,13.00
2024-05-09T03:38:28.482Z,13.00
2024-05-09T03:40:56.233Z,13.00
2024-05-09T03:43:23.929Z,12.90
2024-05-09T03:45:54.297Z,12.90
2024-05-09T03:48:26.321Z,12.90
2024-05-09T03:50:54.367Z,12.80
2024-05-09T03:53:31.578Z,12.80
2024-05-09T03:56:03.701Z,12.80
2024-05-09T03:58:31.389Z,12.80
2024-05-09T04:01:01.077Z,12.70
2024-05-09T04:03:29.093Z,12.70
2024-05-09T04:05:56.747Z,12.70
2024-05-09T04:08:24.565Z,12.70
2024-05-09T04:10:56.542Z,12.70
2024-05-09T04:13:26.261Z,12.70
2024-05-09T04:15:53.748Z,12.70
2024-05-09T04:18:21.480Z,12.80
2024-05-09T04:20:49.293Z,12.70
2024-05-09T04:23:19.951Z,12.70
2024-05-09T04:25:52.522Z,12.70
2024-05-09T04:28:20.723Z,12.70
2024-05-09T04:30:51.563Z,12.70
2024-05-09T04:33:21.656Z,12.70
2024-05-09T04:35:49.545Z,12.70
2024-05-09T04:38:17.208Z,12.80
2024-05-09T04:40:44.999Z,12.80
2024-05-09T04:43:18.850Z,12.80
2024-05-09T04:45:46.662Z,12.80
2024-05-09T04:48:17.230Z,12.80
2024-05-09T04:50:45.030Z,12.80
2024-05-09T04:53:18.455Z,12.80
2024-05-09T04:55:48.758Z,12.80
2024-05-09T04:58:18.868Z,12.80
2024-05-09T05:00:48.707Z,12.80
2024-05-09T05:03:19.060Z,12.80
2024-05-09T05:05:46.926Z,12.80
2024-05-09T05:08:17.256Z,12.80
2024-05-09T05:10:46.964Z,12.80
2024-05-09T05:13:21.819Z,12.80
2024-05-09T05:15:53.526Z,12.90
2024-05-09T05:18:27.511Z,12.90
2024-05-09T05:20:58.901Z,12.90
2024-05-09T05:23:29.204Z,12.90
2024-05-09T05:25:56.856Z,13.00
2024-05-09T05:28:24.570Z,13.00
2024-05-09T05:30:54.571Z,13.00
2024-05-09T05:33:24.704Z,13.00
2024-05-09T05:35:54.725Z,13.00
2024-05-09T05:38:26.058Z,13.00
2024-05-09T05:40:55.795Z,13.10
2024-05-09T05:43:23.621Z,13.10
2024-05-09T05:45:53.493Z,13.20
2024-05-09T05:48:21.269Z,13.20
2024-05-09T05:50:53.682Z,13.20
2024-05-09T05:53:21.445Z,13.30
2024-05-09T05:55:51.327Z,13.30
2024-05-09T05:58:22.506Z,13.40
2024-05-09T06:00:53.069Z,13.40
2024-05-09T06:03:23.405Z,13.50
2024-05-09T06:05:51.323Z,13.50
2024-05-09T06:08:21.891Z,13.60
2024-05-09T06:10:52.437Z,13.60
2024-05-09T06:13:20.482Z,13.70
2024-05-09T06:15:50.333Z,13.80
2024-05-09T06:18:20.513Z,13.80
2024-05-09T06:20:55.175Z,13.90
2024-05-09T06:23:25.065Z,14.00
2024-05-09T06:25:52.643Z,14.00
2024-05-09T06:28:20.255Z,14.10
2024-05-09T06:30:52.459Z,14.20
2024-05-09T06:33:22.730Z,14.20
2024-05-09T06:35:57.115Z,14.30
2024-05-09T06:38:27.369Z,14.40
2024-05-09T06:40:55.915Z,14.50
2024-05-09T06:43:23.477Z,14.50
2024-05-09T06:45:54.831Z,14.60
2024-05-09T06:48:23.425Z,14.70
2024-05-09T06:50:51.271Z,14.80
2024-05-09T06:53:24.406Z,14.80
2024-05-09T06:55:52.135Z,14.90
2024-05-09T06:58:19.681Z,15.00
2024-05-09T07:00:49.258Z,15.00
2024-05-09T07:03:18.756Z,15.10
2024-05-09T07:05:50.222Z,15.20
2024-05-09T07:08:22.509Z,15.30
2024-05-09T07:10:50.349Z,15.30
2024-05-09T07:13:18.132Z,15.40
2024-05-09T07:15:45.882Z,15.50
2024-05-09T07:18:18.349Z,15.60
2024-05-09T07:20:48.411Z,15.70
2024-05-09T07:23:17.346Z,15.70
2024-05-09T07:25:47.316Z,15.80
2024-05-09T07:28:17.627Z,15.90
2024-05-09T07:30:46.660Z,16.00
2024-05-09T07:33:22.388Z,16.10
2024-05-09T07:35:51.476Z,16.20
2024-05-09T07:38:24.420Z,16.20
2024-05-09T07:40:52.025Z,16.30
2024-05-09T07:43:22.115Z,16.40
2024-05-09T07:45:56.450Z,16.50
2024-05-09T07:50:00.971Z,16.60
2024-05-09T07:53:52.350Z,16.80
2024-05-09T07:56:23.975Z,16.90
2024-05-09T07:58:54.199Z,17.00
2024-05-09T08:01:26.573Z,17.10
2024-05-09T08:03:57.883Z,17.20
2024-05-09T08:06:27.314Z,17.30
2024-05-09T08:09:02.645Z,17.40
2024-05-09T08:11:33.219Z,17.50
2024-05-09T08:14:00.968Z,17.60
2024-05-09T08:16:28.693Z,17.70
2024-05-09T08:18:58.680Z,17.80
2024-05-09T08:21:26.722Z,17.90
2024-05-09T08:23:59.017Z,18.00
2024-05-09T08:26:26.933Z,18.10
2024-05-09T08:28:54.552Z,18.20
2024-05-09T08:31:22.188Z,18.30
2024-05-09T08:33:53.025Z,18.40
2024-05-09T08:36:20.770Z,18.50
2024-05-09T08:38:49.598Z,18.60
2024-05-09T08:41:21.942Z,18.60
2024-05-09T08:43:49.642Z,18.70
2024-05-09T08:46:18.677Z,18.90
2024-05-09T08:48:49.343Z,19.00
2024-05-09T08:51:16.929Z,19.10
2024-05-09T08:53:44.522Z,19.20
2024-05-09T08:56:13.443Z,19.30
2024-05-09T08:58:45.050Z,19.40
2024-05-09T09:01:18.141Z,19.40
2024-05-09T09:03:49.930Z,19.50
2024-05-09T09:06:24.807Z,19.60
2024-05-09T09:08:55.044Z,19.70
2024-05-09T09:11:22.597Z,19.80
2024-05-09T09:13:50.493Z,19.90
2024-05-09T09:16:18.322Z,20.00
2024-05-09T09:18:46.298Z,20.10
2024-05-09T09:21:14.146Z,20.20
2024-05-09T09:23:44.424Z,20.20
2024-05-09T09:26:17.049Z,20.40
2024-05-09T09:28:45.015Z,20.40
2024-05-09T09:31:12.756Z,20.50
2024-05-09T09:33:44.271Z,20.60
2024-05-09T09:36:15.165Z,20.70
2024-05-09T09:38:44.129Z,20.80
2024-05-09T09:41:19.918Z,20.80
2024-05-09T09:43:54.819Z,21.00
2024-05-09T09:46:23.507Z,21.00
2024-05-09T09:48:54.504Z,21.10
2024-05-09T09:51:23.110Z,21.20
2024-05-09T09:53:53.638Z,21.30
2024-05-09T09:56:23.728Z,21.40
2024-05-09T09:58:57.622Z,21.50
2024-05-09T10:01:25.312Z,21.50
2024-05-09T10:03:56.467Z,21.60
2024-05-09T10:06:25.151Z,21.70
2024-05-09T10:08:53.306Z,21.80
2024-05-09T10:11:22.293Z,21.90
2024-05-09T10:13:53.733Z,21.90
2024-05-09T10:16:24.425Z,22.10
2024-05-09T10:18:56.994Z,22.20
2024-05-09T10:21:27.185Z,22.30
2024-05-09T10:24:10.037Z,22.40
2024-05-09T10:26:39.447Z,22.50
2024-05-09T10:29:24.098Z,22.70
2024-05-09T10:31:54.295Z,22.80
2024-05-09T10:34:24.250Z,23.10
2024-05-09T10:36:55.779Z,23.20
2024-05-09T10:39:28.813Z,23.30
2024-05-09T10:41:56.429Z,23.40
2024-05-09T10:44:26.605Z,23.50
2024-05-09T10:46:57.164Z,23.50
2024-05-09T10:49:27.080Z,23.70
2024-05-09T10:51:57.317Z,23.80
2024-05-09T10:54:37.368Z,24.00
2024-05-09T10:57:05.913Z,24.30
2024-05-09T10:59:39.270Z,24.60
2024-05-09T11:02:10.601Z,24.90
2024-05-09T11:04:46.670Z,25.30
2024-05-09T11:07:21.443Z,25.70
2024-05-09T11:09:49.880Z,26.10
2024-05-09T11:12:19.343Z,26.50
2024-05-09T11:14:59.307Z,26.80
2024-05-09T11:17:37.504Z,27.20
2024-05-09T11:20:13.391Z,27.60
2024-05-09T11:22:44.545Z,27.80
2024-05-09T11:25:14.415Z,28.00
2024-05-09T11:27:44.383Z,28.10
2024-05-09T11:30:29.570Z,28.20
2024-05-09T11:32:59.807Z,28.20
2024-05-09T11:35:30.106Z,28.30
2024-05-09T11:37:57.722Z,28.40
2024-05-09T11:40:32.409Z,28.60
2024-05-09T11:43:05.953Z,28.70
2024-05-09T11:45:33.813Z,28.80
2024-05-09T11:48:01.718Z,28.90
2024-05-09T11:50:35.564Z,29.10
2024-05-09T11:53:09.062Z,29.30
2024-05-09T11:55:39.179Z,29.60
2024-05-09T11:58:08.232Z,30.00
2024-05-09T12:00:37.604Z,30.30
2024-05-09T12:03:06.362Z,30.60
2024-05-09T12:05:34.684Z,30.90
2024-05-09T12:08:07.145Z,31.10
2024-05-09T12:10:37.619Z,31.30
2024-05-09T12:13:06.874Z,31.40
2024-05-09T12:15:39.386Z,31.60
2024-05-09T12:18:08.329Z,31.80
2024-05-09T12:20:40.024Z,32.10
2024-05-09T12:23:10.394Z,32.30
2024-05-09T12:25:40.144Z,32.60
2024-05-09T12:28:09.146Z,32.90
2024-05-09T12:30:41.915Z,33.10
2024-05-09T12:33:15.002Z,33.20
2024-05-09T12:35:45.372Z,33.30
2024-05-09T12:38:19.720Z,33.20
2024-05-09T12:40:47.348Z,33.20
2024-05-09T12:43:18.474Z,33.00
2024-05-09T12:45:48.460Z,32.90
2024-05-09T12:48:20.661Z,32.90
2024-05-09T12:50:48.484Z,32.90
2024-05-09T12:53:16.021Z,33.00
2024-05-09T12:55:53.553Z,33.10
2024-05-09T12:58:26.884Z,33.20
2024-05-09T13:00:54.571Z,33.30
2024-05-09T13:03:22.447Z,33.20
2024-05-09T13:05:53.650Z,33.10
2024-05-09T13:08:21.651Z,33.00
2024-05-09T13:10:51.970Z,32.90
2024-05-09T13:13:19.834Z,32.80
2024-05-09T13:15:47.715Z,32.70
2024-05-09T13:18:17.941Z,32.60
2024-05-09T13:20:45.532Z,32.60
2024-05-09T13:23:15.282Z,32.70
2024-05-09T13:25:45.282Z,32.90
2024-05-09T13:28:17.324Z,33.00
2024-05-09T13:30:47.812Z,33.20
2024-05-09T13:33:15.648Z,33.40
2024-05-09T13:35:49.724Z,33.60
2024-05-09T13:38:20.065Z,33.90
2024-05-09T13:40:50.708Z,34.10
2024-05-09T13:43:19.351Z,34.20
2024-05-09T13:45:47.855Z,34.20
2024-05-09T13:48:15.770Z,34.40
2024-05-09T13:50:45.832Z,34.50
2024-05-09T13:53:15.394Z,34.60
2024-05-09T13:55:43.826Z,34.60
2024-05-09T13:58:11.539Z,34.50
2024-05-09T14:00:46.208Z,34.40
2024-05-09T14:03:19.211Z,34.20
2024-05-09T14:05:49.326Z,34.00
2024-05-09T14:08:21.819Z,33.90
2024-05-09T14:10:50.478Z,33.80
2024-05-09T14:13:18.637Z,33.80
2024-05-09T14:15:49.207Z,33.80
2024-05-09T14:18:19.862Z,33.80
2024-05-09T14:20:47.470Z,33.80
2024-05-09T14:23:17.643Z,33.80
2024-05-09T14:25:47.252Z,33.90
2024-05-09T14:28:23.189Z,34.00
2024-05-09T14:30:53.293Z,34.10
2024-05-09T14:33:26.847Z,34.30
2024-05-09T14:36:00.054Z,34.40
2024-05-09T14:38:28.437Z,34.50
2024-05-09T14:40:59.020Z,34.70
2024-05-09T14:43:32.401Z,34.80
2024-05-09T14:46:00.172Z,34.80
2024-05-09T14:48:28.678Z,34.80
2024-05-09T14:50:58.989Z,34.80
2024-05-09T14:53:28.078Z,34.90
2024-05-09T14:55:58.312Z,35.00
2024-05-09T14:58:26.324Z,35.10
2024-05-09T15:00:54.077Z,35.10
2024-05-09T15:03:26.031Z,35.00
2024-05-09T15:06:01.118Z,34.90
2024-05-09T15:08:31.087Z,34.90
2024-05-09T15:10:58.867Z,34.90
2024-05-09T15:13:26.811Z,35.00
2024-05-09T15:15:54.756Z,35.00
2024-05-09T15:18:22.678Z,35.00
2024-05-09T15:20:54.946Z,35.10
2024-05-09T15:23:25.617Z,35.10
2024-05-09T15:25:53.191Z,35.00
2024-05-09T15:28:23.351Z,35.10
2024-05-09T15:30:53.717Z,35.10
2024-05-09T15:33:21.348Z,35.20
2024-05-09T15:35:52.241Z,35.20
2024-05-09T15:38:22.700Z,35.30
2024-05-09T15:40:50.343Z,35.30
2024-05-09T15:43:18.172Z,35.20
2024-05-09T15:45:51.138Z,35.20
2024-05-09T15:48:19.287Z,35.20
2024-05-09T15:50:49.145Z,35.20
2024-05-09T15:53:21.536Z,35.20
2024-05-09T15:55:53.838Z,35.20
2024-05-09T15:58:24.616Z,35.00
2024-05-09T16:00:57.069Z,34.90
2024-05-09T16:03:25.032Z,34.60
2024-05-09T16:05:57.453Z,34.20
2024-05-09T16:08:27.449Z,33.70
2024-05-09T16:10:59.402Z,33.30
2024-05-09T16:13:29.564Z,32.80
2024-05-09T16:15:57.675Z,32.50
2024-05-09T16:18:27.978Z,32.10
2024-05-09T16:20:59.985Z,31.70
2024-05-09T16:23:28.143Z,31.30
2024-05-09T16:25:57.519Z,30.90
2024-05-09T16:28:29.991Z,30.50
2024-05-09T16:30:59.227Z,30.10
2024-05-09T16:33:26.937Z,29.70
2024-05-09T16:35:58.257Z,29.50
2024-05-09T16:38:25.910Z,29.20
2024-05-09T16:40:55.934Z,28.90
2024-05-09T16:43:26.268Z,28.70
2024-05-09T16:45:56.576Z,28.50
2024-05-09T16:48:26.636Z,28.40
2024-05-09T16:50:56.674Z,28.30
2024-05-09T16:53:25.615Z,28.20
2024-05-09T16:55:55.399Z,28.00
2024-05-09T16:58:26.560Z,27.80
2024-05-09T17:00:56.764Z,27.60
2024-05-09T17:03:26.873Z,27.50
2024-05-09T17:05:56.851Z,27.40
2024-05-09T17:08:26.539Z,27.20
2024-05-09T17:10:54.190Z,27.10
2024-05-09T17:13:29.082Z,26.90
2024-05-09T17:15:56.863Z,26.80
2024-05-09T17:18:24.867Z,26.70
2024-05-09T17:20:55.078Z,26.50
2024-05-09T17:23:28.166Z,26.40
2024-05-09T17:25:56.212Z,26.30
2024-05-09T17:28:26.200Z,26.10
2024-05-09T17:30:53.966Z,26.00
2024-05-09T17:33:23.854Z,25.90
2024-05-09T17:35:53.912Z,25.80
2024-05-09T17:38:23.765Z,25.70
2024-05-09T17:40:53.244Z,25.60
2024-05-09T17:43:25.797Z,25.50
2024-05-09T17:45:55.966Z,25.40
2024-05-09T17:48:26.168Z,25.30
2024-05-09T17:50:56.212Z,25.20
2024-05-09T17:53:23.703Z,25.10
2024-05-09T17:55:56.399Z,25.00
2024-05-09T17:58:27.067Z,24.90
2024-05-09T18:00:57.398Z,24.90
2024-05-09T18:03:29.769Z,24.80
2024-05-09T18:05:57.936Z,24.70
2024-05-09T18:08:25.565Z,24.60
2024-05-09T18:10:55.376Z,24.50
2024-05-09T18:13:26.254Z,24.50
2024-05-09T18:15:58.710Z,24.30
2024-05-09T18:18:28.436Z,24.20
2024-05-09T18:21:00.822Z,24.20
2024-05-09T18:23:33.673Z,24.10
2024-05-09T18:26:01.466Z,24.00
2024-05-09T18:28:31.459Z,23.90
2024-05-09T18:30:59.070Z,23.70
2024-05-09T18:33:29.321Z,23.70
2024-05-09T18:35:59.246Z,23.60
2024-05-09T18:38:29.137Z,23.40
2024-05-09T18:40:56.723Z,23.30
2024-05-09T18:43:31.004Z,23.30
2024-05-09T18:46:06.858Z,23.20
2024-05-09T18:48:35.209Z,23.00
2024-05-09T18:51:03.610Z,22.90
2024-05-09T18:53:33.798Z,22.90
2024-05-09T18:56:01.343Z,22.80
2024-05-09T18:58:28.954Z,22.70
2024-05-09T19:00:58.440Z,22.60
2024-05-09T19:03:27.916Z,22.50
2024-05-09T19:05:58.132Z,22.40
2024-05-09T19:08:25.717Z,22.40
2024-05-09T19:10:54.032Z,22.20
2024-05-09T19:13:21.681Z,22.20
2024-05-09T19:15:49.296Z,22.10
2024-05-09T19:18:17.689Z,22.00
2024-05-09T19:20:47.767Z,21.90
2024-05-09T19:23:17.959Z,21.80
2024-05-09T19:25:45.520Z,21.70
2024-05-09T19:28:13.235Z,21.70
2024-05-09T19:30:42.617Z,21.60
2024-05-09T19:33:13.314Z,21.50
2024-05-09T19:35:44.394Z,21.40
2024-05-09T19:38:14.487Z,21.30
2024-05-09T19:40:47.048Z,21.30
2024-05-09T19:43:14.810Z,21.20
2024-05-09T19:45:43.551Z,21.10
2024-05-09T19:48:11.709Z,21.10
2024-05-09T19:50:44.141Z,21.00
2024-05-09T19:53:15.606Z,20.90
2024-05-09T19:55:45.734Z,20.80
2024-05-09T19:58:15.721Z,20.70
2024-05-09T20:00:47.685Z,20.60
2024-05-09T20:03:16.182Z,20.60
2024-05-09T20:05:46.832Z,20.60
2024-05-09T20:08:15.035Z,20.50
2024-05-09T20:10:45.236Z,20.40
2024-05-09T20:13:14.395Z,20.40
2024-05-09T20:15:42.034Z,20.30
2024-05-09T20:18:12.110Z,20.30
2024-05-09T20:20:42.714Z,20.20
2024-05-09T20:23:17.498Z,20.20
2024-05-09T20:25:47.494Z,20.20
2024-05-09T20:28:15.217Z,20.20
2024-05-09T20:30:45.194Z,20.20
2024-05-09T20:33:14.162Z,20.10
2024-05-09T20:35:46.570Z,20.10
2024-05-09T20:38:14.127Z,20.10
2024-05-09T20:40:44.012Z,20.00
2024-05-09T20:43:13.841Z,20.00
2024-05-09T20:45:41.706Z,19.90
2024-05-09T20:48:12.209Z,19.90
2024-05-09T20:50:44.846Z,19.80
2024-05-09T20:53:15.841Z,19.80
2024-05-09T20:55:45.858Z,19.70
2024-05-09T20:58:14.209Z,19.60
2024-05-09T21:00:46.730Z,19.60
2024-05-09T21:03:17.034Z,19.50
2024-05-09T21:05:45.967Z,19.50
2024-05-09T21:08:13.952Z,19.40
2024-05-09T21:10:41.653Z,19.30
2024-05-09T21:13:11.909Z,19.30
2024-05-09T21:15:39.646Z,19.20
2024-05-09T21:18:07.616Z,19.20
2024-05-09T21:20:39.882Z,19.10
2024-05-09T21:23:14.012Z,19.00
2024-05-09T21:25:43.713Z,19.00
2024-05-09T21:28:11.422Z,18.90
2024-05-09T21:30:43.122Z,18.90
2024-05-09T21:33:15.401Z,18.80
2024-05-09T21:35:46.440Z,18.80
2024-05-09T21:38:16.603Z,18.70
2024-05-09T21:40:45.227Z,18.70
2024-05-09T21:43:13.231Z,18.60
2024-05-09T21:45:43.935Z,18.60
2024-05-09T21:48:13.594Z,18.60
2024-05-09T21:50:42.542Z,18.50
2024-05-09T21:53:13.837Z,18.50
2024-05-09T21:55:45.332Z,18.50
2024-05-09T21:58:14.714Z,18.40
2024-05-09T22:00:45.510Z,18.30
2024-05-09T22:03:14.570Z,18.30
2024-05-09T22:05:44.406Z,18.20
2024-05-09T22:08:12.667Z,18.20
2024-05-09T22:10:42.588Z,18.10
2024-05-09T22:13:12.864Z,18.10
2024-05-09T22:15:43.019Z,18.00
2024-05-09T22:18:11.597Z,18.00
2024-05-09T22:20:46.328Z,18.00
2024-05-09T22:23:15.722Z,18.00
2024-05-09T22:25:43.519Z,17.90
2024-05-09T22:28:15.139Z,17.90
2024-05-09T22:30:46.763Z,17.80
2024-05-09T22:33:20.043Z,17.80
2024-05-09T22:35:48.011Z,17.70
2024-05-09T22:38:17.907Z,17.70
2024-05-09T22:40:49.855Z,17.60
2024-05-09T22:43:24.288Z,17.60
2024-05-09T22:45:55.538Z,17.60
2024-05-09T22:48:24.543Z,17.50
2024-05-09T22:50:55.621Z,17.50
2024-05-09T22:53:26.096Z,17.40
2024-05-09T22:55:56.281Z,17.40
2024-05-09T22:58:26.185Z,17.40
2024-05-09T23:00:58.208Z,17.40
2024-05-09T23:03:26.189Z,17.40
2024-05-09T23:05:56.430Z,17.40
2024-05-09T23:08:26.216Z,17.30
2024-05-09T23:10:56.279Z,17.30
2024-05-09T23:13:26.247Z,17.40
2024-05-09T23:15:53.841Z,17.40
2024-05-09T23:18:23.981Z,17.30
2024-05-09T23:20:54.069Z,17.30
2024-05-09T23:23:22.045Z,17.30
2024-05-09T23:25:50.515Z,17.30
2024-05-09T23:28:20.809Z,17.30
2024-05-09T23:30:55.317Z,17.30
2024-05-09T23:33:25.298Z,17.30
2024-05-09T23:35:55.456Z,17.20
2024-05-09T23:38:24.056Z,17.30
2024-05-09T23:40:51.992Z,17.20
2024-05-09T23:43:19.936Z,17.20
2024-05-09T23:45:49.856Z,17.20
2024-05-09T23:48:19.791Z,17.20
2024-05-09T23:50:48.944Z,17.10
2024-05-09T23:53:18.056Z,17.10
2024-05-09T23:55:50.856Z,17.10
2024-05-09T23:58:18.577Z,17.00
